CheckWX is a tool to help pilots better visualize weather data.  It is not intended as a substitute for an official pre-flight weather briefing.

20:25:28 UTC

KNUI METAR
Webster Nolf Airport
St Inigoes, Maryland, USA
Current

32 mins ago

KNUI 201953Z AUTO 17009G17KT 10SM CLR 21/10 A2968 RMK AO2 SLP051 T02060100
Observed
Apr-20 @ 19:53 UTC
Wind
  • 170° at 9 KTS
  • Gusting to 17 KTS
Visibility
10 SM
Flight Rules
VFR
Cloud Levels
  • Clear skies
Temperature
21°C / 70°F
Dewpoint
10°C / 50°F
Humidity
50%
Altimeter
29.68" Hg
Pressure
1005.12 hPa
Previous

2 hours ago

KNUI 201853Z AUTO 19013KT 10SM CLR 21/11 A2969 RMK AO2 SLP053 T02060106
Observed
Apr-20 @ 18:53 UTC
Wind
  • 190° at 13 KTS
Visibility
10 SM
Flight Rules
VFR
Cloud Levels
  • Clear skies
Temperature
21°C / 70°F
Dewpoint
11°C / 52°F
Humidity
53%
Altimeter
29.69" Hg
Pressure
1005.42 hPa
Previous

3 hours ago

KNUI 201753Z AUTO 20011G18KT 10SM CLR 20/11 A2970 RMK AO2 SLP055 T02000111 10206 20172 50003
Observed
Apr-20 @ 17:53 UTC
Wind
  • 200° at 11 KTS
  • Gusting to 18 KTS
Visibility
10 SM
Flight Rules
VFR
Cloud Levels
  • Clear skies
Temperature
20°C / 68°F
Dewpoint
11°C / 52°F
Humidity
56%
Altimeter
29.7" Hg
Pressure
1005.72 hPa